Time;durP1;ratioP1;P1;durP2;ratioP2;P2;SDS_P1;SDS_P2;PMS_P1;PMS_P2;Temp;Humidity;BMP_temperature;BMP_pressure;BME280_temperature;BME280_humidity;BME280_pressure;Samples;Min_cycle;Max_cycle;Signal;HPM_P1;HPM_P2
2022/03/04 00:00:25;;;;;;;19.88;11.85;;;;;;;;;;6071032;23;20025;-77
2022/03/04 00:02:52;;;;;;;22.95;13.43;;;;;;;;;;6095078;23;20021;-77
2022/03/04 00:05:18;;;;;;;21.83;12.60;;;;;;;;;;6071306;23;20046;-77
2022/03/04 00:07:44;;;;;;;22.63;12.73;;;;;;;;;;6094964;23;20017;-77
2022/03/04 00:10:10;;;;;;;20.70;13.13;;;;;;;;;;6095060;23;20065;-76
2022/03/04 00:12:36;;;;;;;23.23;13.65;;;;;;;;;;6095209;23;20147;-77
2022/03/04 00:15:02;;;;;;;22.25;13.48;;;;;;;;;;6095059;23;20401;-77
2022/03/04 00:17:28;;;;;;;23.95;13.73;;;;;;;;;;6095143;23;20021;-77
2022/03/04 00:19:54;;;;;;;27.38;14.52;;;;;;;;;;6095265;23;20072;-77
2022/03/04 00:22:20;;;;;;;21.45;12.50;;;;;;;;;;6095169;23;20018;-77
2022/03/04 00:24:46;;;;;;;22.98;12.52;;;;;;;;;;6071216;23;20354;-77
2022/03/04 00:27:12;;;;;;;22.08;12.98;;;;;;;;;;6095074;23;20318;-77
2022/03/04 00:29:38;;;;;;;20.58;11.55;;;;;;;;;;6066097;23;20465;-77
2022/03/04 00:32:04;;;;;;;22.13;12.95;;;;;;;;;;6066391;23;20442;-77
2022/03/04 00:34:30;;;;;;;22.95;13.05;;;;;;;;;;6067956;23;20102;-77
2022/03/04 00:36:56;;;;;;;19.70;12.45;;;;;;;;;;6067962;23;20014;-77
2022/03/04 00:39:23;;;;;;;26.13;14.30;;;;;;;;;;6068044;23;20077;-77
2022/03/04 00:41:49;;;;;;;23.45;14.55;;;;;;;;;;6068166;23;20089;-77
2022/03/04 00:44:15;;;;;;;26.27;14.07;;;;;;;;;;6067816;23;20293;-77
2022/03/04 00:46:41;;;;;;;26.10;14.48;;;;;;;;;;6067486;23;20053;-77
2022/03/04 00:49:07;;;;;;;26.13;14.73;;;;;;;;;;6067898;23;20011;-76
2022/03/04 00:51:33;;;;;;;22.75;13.75;;;;;;;;;;6067777;23;20010;-77
2022/03/04 00:53:59;;;;;;;26.15;14.10;;;;;;;;;;6067731;23;20493;-77
2022/03/04 00:56:25;;;;;;;24.63;13.27;;;;;;;;;;6067934;23;20050;-77
2022/03/04 00:58:51;;;;;;;22.23;13.55;;;;;;;;;;6067886;23;20018;-77
2022/03/04 01:01:17;;;;;;;23.30;14.65;;;;;;;;;;6067889;23;20093;-77
2022/03/04 01:03:43;;;;;;;25.27;14.85;;;;;;;;;;6068206;23;20018;-77
2022/03/04 01:06:10;;;;;;;25.15;14.52;;;;;;;;;;6067716;23;20224;-76
2022/03/04 01:08:36;;;;;;;24.90;15.63;;;;;;;;;;6067566;23;20015;-77
2022/03/04 01:11:02;;;;;;;24.98;13.95;;;;;;;;;;6067665;23;20395;-77
2022/03/04 01:13:28;;;;;;;23.42;13.50;;;;;;;;;;6067648;23;20021;-77
2022/03/04 01:15:54;;;;;;;28.80;14.77;;;;;;;;;;6067586;23;20018;-77
2022/03/04 01:18:21;;;;;;;26.73;14.10;;;;;;;;;;6067510;23;20396;-77
2022/03/04 01:20:47;;;;;;;26.45;14.88;;;;;;;;;;6055758;23;20022;-77
2022/03/04 01:23:13;;;;;;;27.38;15.02;;;;;;;;;;6067486;23;20464;-77
2022/03/04 01:25:39;;;;;;;24.80;14.35;;;;;;;;;;6067537;23;20025;-77
2022/03/04 01:28:04;;;;;;;27.75;14.98;;;;;;;;;;6073877;23;20092;-77
2022/03/04 01:30:30;;;;;;;26.10;14.02;;;;;;;;;;6096255;23;20006;-77
2022/03/04 01:32:56;;;;;;;25.42;15.20;;;;;;;;;;6096643;23;20033;-76
2022/03/04 01:35:22;;;;;;;28.65;16.60;;;;;;;;;;6096359;23;20018;-77
2022/03/04 01:37:48;;;;;;;27.35;15.75;;;;;;;;;;6096317;23;20097;-77
2022/03/04 01:40:14;;;;;;;26.88;17.02;;;;;;;;;;6072831;23;20017;-77
2022/03/04 01:42:41;;;;;;;28.35;15.95;;;;;;;;;;6096463;23;20068;-76
2022/03/04 01:45:08;;;;;;;27.52;15.93;;;;;;;;;;6096100;23;20014;-76
2022/03/04 01:47:35;;;;;;;30.58;17.58;;;;;;;;;;6096248;23;20028;-77
2022/03/04 01:50:02;;;;;;;27.92;16.75;;;;;;;;;;6096367;23;20017;-77
2022/03/04 01:52:28;;;;;;;30.80;16.35;;;;;;;;;;6096152;23;20049;-77
2022/03/04 01:54:54;;;;;;;29.85;18.00;;;;;;;;;;6071789;23;20557;-77
2022/03/04 01:57:20;;;;;;;28.83;17.02;;;;;;;;;;6096242;23;20025;-77
2022/03/04 01:59:46;;;;;;;26.75;16.08;;;;;;;;;;6096116;23;20010;-77
2022/03/04 02:02:12;;;;;;;29.77;16.23;;;;;;;;;;6095473;23;20337;-77
2022/03/04 02:04:38;;;;;;;29.63;16.70;;;;;;;;;;6072145;23;20022;-76
2022/03/04 02:07:04;;;;;;;30.23;17.60;;;;;;;;;;6096104;23;20352;-77
2022/03/04 02:09:30;;;;;;;31.92;17.38;;;;;;;;;;6095874;23;20010;-76
2022/03/04 02:11:57;;;;;;;30.77;17.35;;;;;;;;;;6071814;23;20010;-77
2022/03/04 02:14:23;;;;;;;32.63;18.65;;;;;;;;;;6096027;23;20009;-76
2022/03/04 02:16:53;;;;;;;31.40;18.27;;;;;;;;;;6071970;23;20364;-77
2022/03/04 02:19:19;;;;;;;34.38;18.48;;;;;;;;;;6095983;23;20162;-76
2022/03/04 02:21:58;;;;;;;33.65;18.30;;;;;;;;;;6095852;23;20149;-77
2022/03/04 02:24:25;;;;;;;32.58;17.33;;;;;;;;;;6095881;23;20029;-77
2022/03/04 02:26:52;;;;;;;30.52;17.58;;;;;;;;;;6096251;23;20340;-77
2022/03/04 02:29:18;;;;;;;36.60;19.52;;;;;;;;;;6095600;23;20022;-77
2022/03/04 02:31:45;;;;;;;32.13;18.38;;;;;;;;;;6071985;23;20459;-77
2022/03/04 02:34:11;;;;;;;40.22;20.52;;;;;;;;;;6095763;23;20013;-77
2022/03/04 02:36:37;;;;;;;32.45;18.85;;;;;;;;;;6095533;23;20096;-77
2022/03/04 02:39:04;;;;;;;40.75;20.40;;;;;;;;;;6095844;23;20014;-77
2022/03/04 02:41:30;;;;;;;38.45;19.20;;;;;;;;;;6095587;23;20018;-77
2022/03/04 02:43:56;;;;;;;32.55;18.52;;;;;;;;;;6071241;23;20271;-77
2022/03/04 02:46:22;;;;;;;34.47;18.25;;;;;;;;;;6094835;23;20014;-77
2022/03/04 02:48:48;;;;;;;36.60;18.95;;;;;;;;;;6095438;23;20010;-77
2022/03/04 02:51:14;;;;;;;34.28;17.63;;;;;;;;;;6095560;23;20017;-77
2022/03/04 02:53:40;;;;;;;36.08;19.80;;;;;;;;;;6095746;23;20292;-77
2022/03/04 02:56:06;;;;;;;32.55;17.85;;;;;;;;;;6095071;23;20420;-77
2022/03/04 02:58:32;;;;;;;35.10;18.92;;;;;;;;;;6095409;23;20053;-76
2022/03/04 03:00:58;;;;;;;28.05;16.88;;;;;;;;;;6095635;23;20072;-77
2022/03/04 03:03:24;;;;;;;34.45;18.15;;;;;;;;;;6095514;23;20022;-77
2022/03/04 03:05:50;;;;;;;33.00;18.33;;;;;;;;;;6094965;23;20030;-77
2022/03/04 03:08:16;;;;;;;38.00;19.88;;;;;;;;;;6095569;23;20010;-77
2022/03/04 03:10:42;;;;;;;35.97;19.98;;;;;;;;;;6071813;23;20022;-76
2022/03/04 03:13:08;;;;;;;37.40;20.35;;;;;;;;;;6095529;23;20010;-77
2022/03/04 03:15:34;;;;;;;37.35;20.05;;;;;;;;;;6095555;23;20507;-76
2022/03/04 03:18:00;;;;;;;38.63;20.67;;;;;;;;;;6095476;23;20017;-77
2022/03/04 03:20:26;;;;;;;34.20;18.08;;;;;;;;;;6095596;23;20406;-76
2022/03/04 03:22:52;;;;;;;39.08;20.10;;;;;;;;;;6072003;23;20029;-77
2022/03/04 03:25:18;;;;;;;40.05;20.30;;;;;;;;;;6095682;23;20014;-76
2022/03/04 03:27:44;;;;;;;41.78;21.27;;;;;;;;;;6071720;23;20448;-76
2022/03/04 03:30:10;;;;;;;43.28;21.67;;;;;;;;;;6095977;23;20017;-76
2022/03/04 03:32:36;;;;;;;41.13;19.95;;;;;;;;;;6095497;23;20397;-76
2022/03/04 03:35:02;;;;;;;38.13;20.42;;;;;;;;;;6095854;23;20073;-76
2022/03/04 03:37:28;;;;;;;41.25;22.70;;;;;;;;;;6096273;23;20017;-76
2022/03/04 03:39:54;;;;;;;40.17;22.60;;;;;;;;;;6095954;23;20415;-77
2022/03/04 03:42:20;;;;;;;43.05;21.23;;;;;;;;;;6095514;23;20021;-76
2022/03/04 03:44:46;;;;;;;45.60;23.42;;;;;;;;;;6083843;23;20049;-76
2022/03/04 03:47:12;;;;;;;48.03;24.15;;;;;;;;;;6072306;23;20400;-76
2022/03/04 03:49:39;;;;;;;41.60;22.33;;;;;;;;;;6072259;23;20088;-76
2022/03/04 03:52:06;;;;;;;46.13;23.10;;;;;;;;;;6095792;23;20010;-76
2022/03/04 03:54:32;;;;;;;40.33;21.90;;;;;;;;;;6095694;23;20014;-76
2022/03/04 03:56:58;;;;;;;40.88;22.73;;;;;;;;;;6096515;23;20069;-77
2022/03/04 03:59:24;;;;;;;44.58;23.23;;;;;;;;;;6096231;23;20472;-76
2022/03/04 04:01:50;;;;;;;44.70;22.17;;;;;;;;;;6096012;23;20092;-76
2022/03/04 04:04:17;;;;;;;43.03;23.63;;;;;;;;;;6095884;23;20089;-76
2022/03/04 04:06:43;;;;;;;46.80;24.05;;;;;;;;;;6095559;23;20021;-76
2022/03/04 04:09:10;;;;;;;44.80;22.63;;;;;;;;;;6072432;23;20041;-75
2022/03/04 04:11:37;;;;;;;43.63;21.00;;;;;;;;;;6095741;23;20010;-76
2022/03/04 04:14:04;;;;;;;40.45;21.17;;;;;;;;;;6095974;23;20254;-76
2022/03/04 04:16:30;;;;;;;43.10;22.88;;;;;;;;;;6096109;23;20103;-76
2022/03/04 04:18:56;;;;;;;45.08;24.13;;;;;;;;;;6072560;23;20026;-76
2022/03/04 04:21:22;;;;;;;39.95;21.30;;;;;;;;;;6095840;23;20014;-76
2022/03/04 04:23:48;;;;;;;43.90;21.85;;;;;;;;;;6095762;23;20017;-76
2022/03/04 04:26:14;;;;;;;46.00;23.40;;;;;;;;;;6071161;23;20026;-75
2022/03/04 04:28:40;;;;;;;39.75;22.33;;;;;;;;;;6095925;23;20101;-76
2022/03/04 04:31:06;;;;;;;40.75;21.40;;;;;;;;;;6096448;23;20480;-76
2022/03/04 04:33:32;;;;;;;44.80;23.13;;;;;;;;;;6096234;23;20014;-76
2022/03/04 04:35:58;;;;;;;46.25;22.85;;;;;;;;;;6095801;23;20020;-76
2022/03/04 04:38:24;;;;;;;45.13;22.33;;;;;;;;;;6071816;23;20134;-76
2022/03/04 04:40:50;;;;;;;45.25;23.10;;;;;;;;;;6095457;23;20061;-76
2022/03/04 04:43:16;;;;;;;43.30;24.73;;;;;;;;;;6071983;23;20097;-76
2022/03/04 04:45:43;;;;;;;44.40;24.15;;;;;;;;;;6095199;23;20074;-76
2022/03/04 04:48:09;;;;;;;43.13;24.15;;;;;;;;;;6072273;23;20032;-76
2022/03/04 04:50:35;;;;;;;45.97;22.38;;;;;;;;;;6071704;23;20076;-76
2022/03/04 04:53:01;;;;;;;43.28;23.15;;;;;;;;;;6096051;23;20096;-75
2022/03/04 04:55:27;;;;;;;42.35;23.05;;;;;;;;;;6096086;23;20212;-76
2022/03/04 04:57:52;;;;;;;44.78;23.42;;;;;;;;;;6096002;23;20018;-76
2022/03/04 05:00:18;;;;;;;47.60;24.10;;;;;;;;;;6095483;23;20014;-76
2022/03/04 05:02:44;;;;;;;41.80;23.08;;;;;;;;;;6094927;23;20057;-76
2022/03/04 05:05:11;;;;;;;47.85;24.02;;;;;;;;;;6095355;23;20018;-76
2022/03/04 05:07:37;;;;;;;43.60;22.67;;;;;;;;;;6095602;23;20066;-76
2022/03/04 05:10:04;;;;;;;42.53;22.08;;;;;;;;;;6095705;23;20010;-75
2022/03/04 05:12:30;;;;;;;48.47;24.80;;;;;;;;;;6071096;23;20020;-76
2022/03/04 05:14:56;;;;;;;43.60;22.83;;;;;;;;;;6095680;23;20010;-76
2022/03/04 05:17:24;;;;;;;45.30;22.92;;;;;;;;;;6070960;23;20021;-76
2022/03/04 05:19:50;;;;;;;46.58;23.77;;;;;;;;;;6096504;23;20014;-76
2022/03/04 05:22:16;;;;;;;45.47;24.33;;;;;;;;;;6097273;23;20010;-76
2022/03/04 05:24:42;;;;;;;48.00;24.45;;;;;;;;;;6096785;23;20041;-76
2022/03/04 05:27:08;;;;;;;46.10;23.67;;;;;;;;;;6097338;23;20021;-76
2022/03/04 05:29:34;;;;;;;47.63;25.45;;;;;;;;;;6096588;23;20014;-75
2022/03/04 05:32:00;;;;;;;43.38;23.73;;;;;;;;;;6072919;23;20064;-76
2022/03/04 05:34:27;;;;;;;47.70;24.08;;;;;;;;;;6072774;23;20010;-76
2022/03/04 05:36:53;;;;;;;47.58;24.20;;;;;;;;;;6096867;23;20081;-76
2022/03/04 05:39:19;;;;;;;44.70;23.02;;;;;;;;;;6096662;23;20120;-76
2022/03/04 05:41:45;;;;;;;50.30;25.27;;;;;;;;;;6096208;23;20519;-76
2022/03/04 05:44:11;;;;;;;46.03;23.02;;;;;;;;;;6097019;23;20018;-76
2022/03/04 05:46:37;;;;;;;45.70;23.33;;;;;;;;;;6097031;23;20021;-76
2022/03/04 05:49:03;;;;;;;44.15;22.98;;;;;;;;;;6072971;23;20466;-76
2022/03/04 05:51:30;;;;;;;46.80;23.38;;;;;;;;;;6096940;23;20388;-75
2022/03/04 05:53:56;;;;;;;46.95;23.65;;;;;;;;;;6096806;23;20352;-76
2022/03/04 05:56:22;;;;;;;43.60;22.50;;;;;;;;;;6096787;23;20322;-76
2022/03/04 05:58:48;;;;;;;44.17;23.92;;;;;;;;;;6072391;23;20470;-75
2022/03/04 06:01:14;;;;;;;41.47;22.88;;;;;;;;;;6072716;23;20207;-76
2022/03/04 06:03:40;;;;;;;43.72;24.45;;;;;;;;;;6096437;23;20018;-76
2022/03/04 06:06:06;;;;;;;49.63;25.08;;;;;;;;;;6095872;23;20112;-76
2022/03/04 06:08:32;;;;;;;50.58;25.80;;;;;;;;;;6096221;23;20010;-77
2022/03/04 06:10:58;;;;;;;51.28;26.80;;;;;;;;;;6072383;23;20014;-75
2022/03/04 06:13:24;;;;;;;46.42;24.48;;;;;;;;;;6073261;23;20360;-75
2022/03/04 06:15:51;;;;;;;49.75;24.17;;;;;;;;;;6097004;23;20018;-76
2022/03/04 06:18:17;;;;;;;49.15;25.40;;;;;;;;;;6096547;23;20178;-76
2022/03/04 06:20:43;;;;;;;46.28;23.98;;;;;;;;;;6072881;23;20101;-76
2022/03/04 06:23:10;;;;;;;47.80;24.08;;;;;;;;;;6096820;23;20021;-75
2022/03/04 06:25:36;;;;;;;49.08;23.77;;;;;;;;;;6096053;23;20039;-75
2022/03/04 06:28:04;;;;;;;46.53;23.45;;;;;;;;;;6096226;23;20388;-75
2022/03/04 06:30:32;;;;;;;49.33;24.02;;;;;;;;;;6072759;23;20076;-76
2022/03/04 06:35:43;;;;;;;50.10;25.50;;;;;;;;;;6097206;23;20053;-75
2022/03/04 06:38:10;;;;;;;50.80;24.80;;;;;;;;;;6096905;23;20021;-76
2022/03/04 06:40:36;;;;;;;44.95;23.55;;;;;;;;;;6094763;23;20014;-76
2022/03/04 06:43:02;;;;;;;49.38;23.98;;;;;;;;;;6097896;23;20040;-76
2022/03/04 06:45:28;;;;;;;41.65;22.77;;;;;;;;;;6096625;23;20149;-75
2022/03/04 06:47:54;;;;;;;46.22;22.67;;;;;;;;;;6095441;23;20678;-76
2022/03/04 06:50:20;;;;;;;44.25;22.27;;;;;;;;;;6095625;23;20032;-76
2022/03/04 06:52:46;;;;;;;45.28;24.13;;;;;;;;;;6061080;23;20045;-76
2022/03/04 06:55:12;;;;;;;44.40;22.92;;;;;;;;;;6073826;23;20070;-76
2022/03/04 06:57:39;;;;;;;43.25;23.70;;;;;;;;;;6098058;23;20137;-76
2022/03/04 07:00:07;;;;;;;44.65;23.55;;;;;;;;;;6097574;23;20056;-76
2022/03/04 07:02:34;;;;;;;41.00;22.60;;;;;;;;;;6095212;23;20108;-76
2022/03/04 07:05:07;;;;;;;44.10;22.63;;;;;;;;;;6095383;23;20021;-75
2022/03/04 07:07:33;;;;;;;48.40;22.67;;;;;;;;;;6071739;23;20018;-76
2022/03/04 07:10:00;;;;;;;51.38;23.60;;;;;;;;;;6072391;23;20033;-76
2022/03/04 07:12:26;;;;;;;47.25;24.13;;;;;;;;;;6096067;23;20010;-75
2022/03/04 07:14:52;;;;;;;44.35;22.85;;;;;;;;;;6095960;23;20010;-76
2022/03/04 07:17:18;;;;;;;43.38;22.15;;;;;;;;;;6095686;23;20021;-76
2022/03/04 07:19:44;;;;;;;38.90;22.38;;;;;;;;;;6095988;23;20076;-76
2022/03/04 07:22:10;;;;;;;42.05;23.10;;;;;;;;;;6095169;23;20025;-76
2022/03/04 07:24:36;;;;;;;40.75;20.80;;;;;;;;;;6096104;23;20072;-76
2022/03/04 07:27:02;;;;;;;44.38;22.55;;;;;;;;;;6096652;23;20018;-76
2022/03/04 07:29:28;;;;;;;43.10;21.63;;;;;;;;;;6071363;23;20094;-76
2022/03/04 07:31:55;;;;;;;39.45;21.30;;;;;;;;;;6095227;23;20106;-76
2022/03/04 07:34:21;;;;;;;39.83;22.30;;;;;;;;;;6094942;23;20514;-76
2022/03/04 07:36:47;;;;;;;43.50;22.17;;;;;;;;;;6095174;23;20021;-76
2022/03/04 07:39:14;;;;;;;37.78;21.25;;;;;;;;;;6095057;23;20018;-75
2022/03/04 07:41:40;;;;;;;37.50;21.42;;;;;;;;;;6095206;23;20018;-76
2022/03/04 07:44:06;;;;;;;40.92;20.75;;;;;;;;;;6071589;23;20077;-75
2022/03/04 07:46:32;;;;;;;41.85;22.80;;;;;;;;;;6095302;23;20021;-77
2022/03/04 07:48:58;;;;;;;37.70;21.85;;;;;;;;;;6095379;23;20108;-75
2022/03/04 07:51:24;;;;;;;44.22;23.90;;;;;;;;;;6095504;23;20053;-76
2022/03/04 07:53:50;;;;;;;37.75;21.55;;;;;;;;;;6095454;23;20022;-76
2022/03/04 07:56:16;;;;;;;44.03;23.50;;;;;;;;;;6095202;23;20018;-76
2022/03/04 07:58:42;;;;;;;44.80;23.45;;;;;;;;;;6070130;23;20013;-76
2022/03/04 08:01:09;;;;;;;38.05;20.33;;;;;;;;;;6095118;23;20017;-76
2022/03/04 08:03:35;;;;;;;39.53;21.15;;;;;;;;;;6094772;23;20022;-76
2022/03/04 08:06:01;;;;;;;38.67;21.10;;;;;;;;;;6095267;23;20018;-75
2022/03/04 08:08:27;;;;;;;42.55;22.63;;;;;;;;;;6095089;23;20014;-76
2022/03/04 08:10:54;;;;;;;39.40;21.70;;;;;;;;;;6095822;23;20014;-76
2022/03/04 08:13:20;;;;;;;44.60;23.50;;;;;;;;;;6096538;23;20046;-76
2022/03/04 08:15:46;;;;;;;40.35;23.02;;;;;;;;;;6096667;23;20014;-76
2022/03/04 08:18:12;;;;;;;41.22;23.70;;;;;;;;;;6096025;23;20148;-76
2022/03/04 08:20:38;;;;;;;39.53;21.15;;;;;;;;;;6097343;23;20018;-76
2022/03/04 08:23:04;;;;;;;45.20;22.55;;;;;;;;;;6095371;23;20101;-76
2022/03/04 08:25:30;;;;;;;38.67;21.33;;;;;;;;;;6071626;23;20041;-76
2022/03/04 08:27:56;;;;;;;35.45;20.35;;;;;;;;;;6094780;23;20026;-76
2022/03/04 08:30:23;;;;;;;36.50;19.70;;;;;;;;;;6070413;23;20022;-76
2022/03/04 08:32:49;;;;;;;36.50;20.90;;;;;;;;;;6093766;23;20356;-76
2022/03/04 08:35:15;;;;;;;35.22;19.33;;;;;;;;;;6071047;23;20022;-76
2022/03/04 08:37:41;;;;;;;37.38;19.77;;;;;;;;;;6093766;23;20022;-75
2022/03/04 08:40:09;;;;;;;35.95;20.45;;;;;;;;;;6094748;23;20088;-76
2022/03/04 08:42:35;;;;;;;36.63;19.40;;;;;;;;;;6095785;23;20018;-76
2022/03/04 08:45:01;;;;;;;34.88;19.25;;;;;;;;;;6093526;23;20029;-76
2022/03/04 08:47:27;;;;;;;36.25;19.63;;;;;;;;;;6094499;23;20017;-76
2022/03/04 08:49:53;;;;;;;36.15;20.08;;;;;;;;;;6070879;23;20022;-75
2022/03/04 08:52:19;;;;;;;31.80;18.00;;;;;;;;;;6071322;23;20106;-76
2022/03/04 08:54:45;;;;;;;37.00;19.30;;;;;;;;;;6096274;23;20018;-76
2022/03/04 08:57:12;;;;;;;30.83;16.75;;;;;;;;;;6096956;23;20351;-76
2022/03/04 08:59:39;;;;;;;31.27;17.55;;;;;;;;;;6096476;23;20017;-76
2022/03/04 09:02:05;;;;;;;36.55;18.85;;;;;;;;;;6097563;23;20018;-76
2022/03/04 09:04:31;;;;;;;33.15;18.27;;;;;;;;;;6097857;23;20021;-76
2022/03/04 09:06:57;;;;;;;29.90;17.52;;;;;;;;;;6096674;23;20475;-76
2022/03/04 09:09:24;;;;;;;29.17;17.10;;;;;;;;;;6093202;23;20044;-76
2022/03/04 09:11:50;;;;;;;32.95;18.40;;;;;;;;;;6072184;23;20010;-76
2022/03/04 09:14:17;;;;;;;30.98;17.35;;;;;;;;;;6095728;23;20032;-76
2022/03/04 09:16:43;;;;;;;32.38;18.23;;;;;;;;;;6072218;23;20069;-76
2022/03/04 09:19:09;;;;;;;37.63;23.23;;;;;;;;;;6095784;23;20161;-76
2022/03/04 09:21:35;;;;;;;38.67;22.92;;;;;;;;;;6096009;23;20024;-76
2022/03/04 09:24:04;;;;;;;30.83;17.85;;;;;;;;;;6096095;23;20029;-76
2022/03/04 09:26:30;;;;;;;33.15;19.52;;;;;;;;;;6095367;23;20018;-77
2022/03/04 09:28:56;;;;;;;60.13;42.50;;;;;;;;;;6096260;23;20352;-77
2022/03/04 09:31:22;;;;;;;39.60;28.05;;;;;;;;;;6096245;23;20052;-77
2022/03/04 09:33:49;;;;;;;35.42;22.10;;;;;;;;;;6072059;23;20018;-77
2022/03/04 09:36:15;;;;;;;33.75;20.05;;;;;;;;;;6095542;23;20502;-77
2022/03/04 09:38:42;;;;;;;31.10;17.85;;;;;;;;;;6096050;23;20100;-77
2022/03/04 09:41:11;;;;;;;34.85;18.88;;;;;;;;;;6122103;23;20025;-77
2022/03/04 09:43:38;;;;;;;31.85;18.48;;;;;;;;;;6071905;23;20018;-77
2022/03/04 09:46:04;;;;;;;32.55;18.83;;;;;;;;;;6095662;23;20025;-77
2022/03/04 09:48:30;;;;;;;33.63;19.45;;;;;;;;;;6095695;23;20014;-78
2022/03/04 09:50:56;;;;;;;31.05;18.80;;;;;;;;;;6095431;23;20024;-77
2022/03/04 09:53:23;;;;;;;28.92;16.77;;;;;;;;;;6095802;23;20010;-77
2022/03/04 09:55:49;;;;;;;29.33;17.80;;;;;;;;;;6096093;23;20452;-78
2022/03/04 09:58:16;;;;;;;26.70;16.63;;;;;;;;;;6071614;23;20097;-78
2022/03/04 10:00:43;;;;;;;27.27;17.25;;;;;;;;;;6071644;23;20018;-78
2022/03/04 10:03:23;;;;;;;27.67;16.15;;;;;;;;;;6095371;23;20511;-77
2022/03/04 10:05:56;;;;;;;27.75;15.75;;;;;;;;;;6119683;23;20018;-78
2022/03/04 10:08:22;;;;;;;29.08;17.48;;;;;;;;;;6071218;23;20040;-78
2022/03/04 10:10:49;;;;;;;27.45;17.85;;;;;;;;;;6095640;23;20021;-78
2022/03/04 10:13:15;;;;;;;26.33;16.23;;;;;;;;;;6071563;23;20088;-77
2022/03/04 10:15:52;;;;;;;27.20;17.70;;;;;;;;;;6071768;23;20045;-78
2022/03/04 10:18:25;;;;;;;25.50;15.73;;;;;;;;;;6071130;23;20013;-78
2022/03/04 10:20:51;;;;;;;25.52;16.38;;;;;;;;;;6095094;23;20020;-77
2022/03/04 10:23:18;;;;;;;26.35;15.88;;;;;;;;;;6095378;23;20476;-77
2022/03/04 10:25:46;;;;;;;23.73;15.80;;;;;;;;;;6070977;23;20022;-78
2022/03/04 10:28:12;;;;;;;27.65;17.10;;;;;;;;;;6071131;23;20097;-78
2022/03/04 10:30:42;;;;;;;25.58;16.85;;;;;;;;;;6071016;23;20014;-78
2022/03/04 10:33:13;;;;;;;26.23;17.70;;;;;;;;;;6095164;23;20460;-78
2022/03/04 10:35:40;;;;;;;25.95;17.00;;;;;;;;;;6095490;23;20543;-78
2022/03/04 10:38:06;;;;;;;28.13;17.02;;;;;;;;;;6071410;23;20020;-79
2022/03/04 10:40:34;;;;;;;25.20;16.13;;;;;;;;;;6095672;23;20511;-78
2022/03/04 10:43:05;;;;;;;24.88;15.82;;;;;;;;;;6071899;23;20025;-78
2022/03/04 10:45:32;;;;;;;23.92;16.23;;;;;;;;;;6094995;23;20030;-79
2022/03/04 10:47:59;;;;;;;57.70;39.33;;;;;;;;;;6095599;23;20014;-79
2022/03/04 10:50:32;;;;;;;25.67;16.70;;;;;;;;;;6072791;23;20077;-78
2022/03/04 10:53:03;;;;;;;24.05;17.00;;;;;;;;;;6095741;23;20048;-79
2022/03/04 10:55:34;;;;;;;23.48;16.40;;;;;;;;;;6093964;23;20478;-78
2022/03/04 10:58:01;;;;;;;23.75;16.38;;;;;;;;;;6094715;23;20529;-80
2022/03/04 11:00:30;;;;;;;23.33;16.92;;;;;;;;;;6095063;23;20344;-79
2022/03/04 11:02:56;;;;;;;21.88;16.15;;;;;;;;;;6094978;23;20017;-78
2022/03/04 11:05:22;;;;;;;24.98;17.00;;;;;;;;;;6094920;23;20021;-78
2022/03/04 11:07:49;;;;;;;24.00;17.52;;;;;;;;;;6094947;23;20352;-79
2022/03/04 11:10:15;;;;;;;24.85;17.05;;;;;;;;;;6095090;23;20021;-79
2022/03/04 11:12:42;;;;;;;22.63;16.48;;;;;;;;;;6094517;23;20356;-79
2022/03/04 11:15:12;;;;;;;23.80;16.05;;;;;;;;;;6070833;23;20009;-79
2022/03/04 11:17:38;;;;;;;22.92;15.38;;;;;;;;;;6071274;23;20014;-79
2022/03/04 11:20:05;;;;;;;22.38;16.02;;;;;;;;;;6094918;23;20251;-79
2022/03/04 11:22:32;;;;;;;21.60;15.40;;;;;;;;;;6094845;23;20024;-79
2022/03/04 11:25:06;;;;;;;21.17;15.18;;;;;;;;;;6094994;23;20348;-79
2022/03/04 11:27:35;;;;;;;22.58;16.13;;;;;;;;;;6071168;23;20018;-79
2022/03/04 11:30:02;;;;;;;22.65;15.48;;;;;;;;;;6070651;23;20056;-79
2022/03/04 11:32:31;;;;;;;22.45;15.98;;;;;;;;;;6094954;23;20018;-81
2022/03/04 11:34:57;;;;;;;21.83;15.85;;;;;;;;;;6094807;23;20014;-79
2022/03/04 11:37:23;;;;;;;22.17;16.35;;;;;;;;;;6094965;23;20549;-79
2022/03/04 11:40:05;;;;;;;20.48;15.10;;;;;;;;;;6071323;23;20151;-78
2022/03/04 11:42:38;;;;;;;21.80;15.35;;;;;;;;;;6070818;23;20010;-79
2022/03/04 11:45:07;;;;;;;20.17;14.68;;;;;;;;;;6095088;23;20057;-79
2022/03/04 11:47:40;;;;;;;21.50;14.30;;;;;;;;;;6070636;23;20010;-78
2022/03/04 11:50:26;;;;;;;21.35;14.70;;;;;;;;;;6095101;23;20089;-79
2022/03/04 11:52:52;;;;;;;19.30;14.25;;;;;;;;;;6095025;23;20097;-79
2022/03/04 11:55:21;;;;;;;19.98;14.30;;;;;;;;;;6094371;23;20054;-78
2022/03/04 11:57:48;;;;;;;17.08;12.63;;;;;;;;;;6094400;23;20014;-78
2022/03/04 12:00:14;;;;;;;19.23;14.27;;;;;;;;;;6094992;23;20583;-78
2022/03/04 12:02:48;;;;;;;19.05;13.63;;;;;;;;;;6094210;23;20018;-79
2022/03/04 12:05:14;;;;;;;17.30;12.35;;;;;;;;;;6094338;23;20463;-77
2022/03/04 12:07:45;;;;;;;18.42;13.05;;;;;;;;;;6094896;23;20021;-80
2022/03/04 12:10:15;;;;;;;17.92;12.02;;;;;;;;;;6095136;23;20068;-78
2022/03/04 12:12:54;;;;;;;17.20;12.35;;;;;;;;;;6093593;23;20417;-79
2022/03/04 12:15:20;;;;;;;19.73;13.07;;;;;;;;;;6069211;23;20018;-79
2022/03/04 12:18:02;;;;;;;20.85;14.35;;;;;;;;;;6094944;23;20025;-78
2022/03/04 12:20:40;;;;;;;19.08;13.80;;;;;;;;;;6093606;23;20146;-79
2022/03/04 12:23:16;;;;;;;18.48;12.93;;;;;;;;;;6095650;23;20049;-77
2022/03/04 12:25:55;;;;;;;19.85;13.48;;;;;;;;;;6069772;23;20018;-78
2022/03/04 12:28:21;;;;;;;18.77;13.30;;;;;;;;;;6097813;23;20433;-78
2022/03/04 12:31:07;;;;;;;19.35;12.90;;;;;;;;;;6074868;23;20013;-78
2022/03/04 12:33:47;;;;;;;18.90;12.68;;;;;;;;;;6071403;23;20463;-78
2022/03/04 12:36:15;;;;;;;19.23;12.45;;;;;;;;;;6096256;23;20049;-78
2022/03/04 12:38:45;;;;;;;19.52;12.68;;;;;;;;;;6070194;23;20022;-77
2022/03/04 12:41:16;;;;;;;19.50;12.20;;;;;;;;;;6096405;23;20018;-76
2022/03/04 12:43:47;;;;;;;18.60;11.30;;;;;;;;;;6096284;23;20018;-78
2022/03/04 12:46:14;;;;;;;16.50;10.65;;;;;;;;;;6096458;23;20014;-78
2022/03/04 12:48:40;;;;;;;17.48;11.45;;;;;;;;;;6097901;23;20100;-78
2022/03/04 12:51:25;;;;;;;17.33;10.93;;;;;;;;;;6072634;23;20014;-77
2022/03/04 12:53:51;;;;;;;15.57;11.32;;;;;;;;;;6097605;23;20344;-78
2022/03/04 12:56:20;;;;;;;16.52;10.98;;;;;;;;;;6074930;23;20605;-78
2022/03/04 12:58:47;;;;;;;17.30;10.15;;;;;;;;;;6073256;23;20628;-78
2022/03/04 13:01:14;;;;;;;17.25;10.93;;;;;;;;;;6095971;23;20072;-77
2022/03/04 13:03:44;;;;;;;39.53;25.88;;;;;;;;;;6094073;23;20052;-78
2022/03/04 13:06:11;;;;;;;42.95;26.50;;;;;;;;;;6072274;23;20385;-78
2022/03/04 13:08:45;;;;;;;54.28;33.97;;;;;;;;;;6072291;23;20304;-77
2022/03/04 13:11:18;;;;;;;158.02;91.50;;;;;;;;;;6072943;23;20321;-77
2022/03/04 13:13:48;;;;;;;16.30;10.65;;;;;;;;;;6095909;23;20025;-77
2022/03/04 13:16:17;;;;;;;24.42;21.83;;;;;;;;;;6096718;23;20014;-78
2022/03/04 13:18:43;;;;;;;18.15;11.32;;;;;;;;;;6120889;23;20022;-77
2022/03/04 13:21:09;;;;;;;15.98;10.40;;;;;;;;;;6072446;23;20018;-77
2022/03/04 13:23:35;;;;;;;18.15;9.50;;;;;;;;;;6098464;23;20021;-78
2022/03/04 13:26:05;;;;;;;14.85;9.52;;;;;;;;;;6098192;23;20021;-77
2022/03/04 13:28:50;;;;;;;14.90;10.00;;;;;;;;;;6072453;23;20073;-80
2022/03/04 13:31:27;;;;;;;13.35;8.85;;;;;;;;;;6072499;23;20017;-77
2022/03/04 13:34:00;;;;;;;15.63;9.88;;;;;;;;;;6096255;23;20024;-77
2022/03/04 13:36:40;;;;;;;14.35;9.60;;;;;;;;;;6072006;23;20348;-78
2022/03/04 13:39:07;;;;;;;15.95;10.55;;;;;;;;;;6095018;23;20025;-78
2022/03/04 13:41:33;;;;;;;15.27;9.50;;;;;;;;;;6094468;23;20081;-78
2022/03/04 13:44:10;;;;;;;15.15;9.25;;;;;;;;;;6095949;23;20018;-77
2022/03/04 13:46:35;;;;;;;15.57;9.77;;;;;;;;;;6095955;23;20048;-76
2022/03/04 13:49:04;;;;;;;14.45;9.48;;;;;;;;;;6095367;23;20234;-77
2022/03/04 13:51:30;;;;;;;17.40;10.70;;;;;;;;;;6095555;23;20014;-77
2022/03/04 13:53:57;;;;;;;17.38;10.32;;;;;;;;;;6094887;23;20088;-76
2022/03/04 13:56:24;;;;;;;15.90;10.00;;;;;;;;;;6071057;23;20045;-77
2022/03/04 13:58:59;;;;;;;15.63;9.45;;;;;;;;;;6071211;23;20018;-78
2022/03/04 14:01:25;;;;;;;15.80;10.10;;;;;;;;;;6092666;23;20025;-77
2022/03/04 14:03:51;;;;;;;16.88;10.40;;;;;;;;;;6092885;23;20046;-77
2022/03/04 14:06:19;;;;;;;15.25;10.00;;;;;;;;;;6072039;23;20360;-77
2022/03/04 14:08:45;;;;;;;14.88;10.05;;;;;;;;;;6072544;23;20017;-78
2022/03/04 14:11:12;;;;;;;17.73;10.50;;;;;;;;;;6095848;23;20045;-77
2022/03/04 14:13:38;;;;;;;15.07;9.75;;;;;;;;;;6095673;23;20010;-78
2022/03/04 14:16:06;;;;;;;15.25;9.73;;;;;;;;;;6096737;23;20362;-77
2022/03/04 14:18:32;;;;;;;15.07;9.43;;;;;;;;;;6072963;23;20018;-77
2022/03/04 14:21:06;;;;;;;15.10;9.48;;;;;;;;;;6097153;23;20495;-78